Time;durP1;ratioP1;P1;durP2;ratioP2;P2;SDS_P1;SDS_P2;PMS_P1;PMS_P2;Temp;Humidity;BMP_temperature;BMP_pressure;BME280_temperature;BME280_humidity;BME280_pressure;Samples;Min_cycle;Max_cycle;Signal;HPM_P1;HPM_P2
2022/04/16 00:00:28;;;;;;;22.95;18.15;;;11.30;99.90;;;11.41;78.47;102951.53;5055028;28;20143;-70
2022/04/16 00:02:57;;;;;;;26.42;19.42;;;11.30;99.90;;;11.47;79.36;102960.53;5073053;28;20044;-69
2022/04/16 00:05:25;;;;;;;21.60;18.52;;;11.30;99.90;;;11.59;78.07;102958.16;5072699;28;20048;-69
2022/04/16 00:10:40;;;;;;;24.48;19.15;;;11.20;99.90;;;11.51;78.54;102961.50;5072998;28;20098;-70
2022/04/16 00:13:08;;;;;;;22.35;18.90;;;11.30;99.90;;;11.34;78.76;102925.75;5072795;28;20075;-70
2022/04/16 00:15:39;;;;;;;25.33;20.70;;;11.30;99.90;;;11.56;79.06;102960.75;5072896;28;20048;-70
2022/04/16 00:18:07;;;;;;;24.00;20.25;;;11.30;99.90;;;11.64;78.91;102953.91;5072482;28;20060;-69
2022/04/16 00:20:41;;;;;;;23.08;20.45;;;11.40;99.90;;;11.41;78.38;102960.38;5072585;28;20044;-70
2022/04/16 00:23:10;;;;;;;26.40;21.00;;;11.30;99.90;;;11.37;78.59;102958.50;5072751;28;20094;-69
2022/04/16 00:25:38;;;;;;;24.40;20.58;;;11.20;99.90;;;11.43;78.27;102960.41;5076035;28;20075;-69
2022/04/16 00:28:08;;;;;;;26.80;20.55;;;11.20;99.90;;;11.21;79.22;102966.00;5076186;28;20056;-69
2022/04/16 00:30:39;;;;;;;25.70;21.17;;;11.10;99.90;;;11.17;78.62;102965.03;5076165;28;20155;-70
2022/04/16 00:33:10;;;;;;;23.63;20.90;;;11.00;99.90;;;11.04;78.16;102949.66;5076084;28;20044;-69
2022/04/16 00:35:39;;;;;;;32.88;21.52;;;10.90;99.90;;;11.13;78.75;102956.97;5076700;28;20040;-70
2022/04/16 00:38:08;;;;;;;26.92;22.23;;;11.00;99.90;;;11.15;77.57;102949.97;5076322;28;20055;-70
2022/04/16 00:40:36;;;;;;;27.48;22.02;;;11.00;99.90;;;11.26;77.74;102954.69;5076232;28;20570;-69
2022/04/16 00:43:06;;;;;;;25.92;21.65;;;11.00;99.90;;;10.63;77.49;102847.94;5076025;28;20046;-70
2022/04/16 00:45:37;;;;;;;28.10;23.63;;;11.10;99.90;;;11.20;77.64;102966.88;5076043;28;20044;-69
2022/04/16 00:48:08;;;;;;;28.70;22.85;;;11.10;99.90;;;11.00;78.93;102963.66;5076081;28;20097;-70
2022/04/16 00:50:36;;;;;;;27.35;23.23;;;10.90;99.90;;;10.97;78.43;102971.53;5075974;28;20044;-69
2022/04/16 00:53:05;;;;;;;27.38;23.75;;;10.80;99.90;;;10.97;77.89;102966.25;5075962;28;20095;-70
2022/04/16 00:55:38;;;;;;;28.92;22.88;;;10.80;99.90;;;10.97;78.53;102957.41;5075984;28;20451;-70
2022/04/16 00:58:07;;;;;;;26.70;22.85;;;10.80;99.90;;;11.28;78.23;102966.22;5076004;28;20044;-69
2022/04/16 01:00:35;;;;;;;29.30;24.23;;;11.00;99.90;;;10.98;77.25;102952.13;5075941;28;20045;-70
2022/04/16 01:03:04;;;;;;;29.85;23.08;;;11.00;99.90;;;11.28;77.38;102966.22;5075908;28;20063;-69
2022/04/16 01:05:35;;;;;;;25.73;22.48;;;11.00;99.90;;;11.27;78.01;102966.16;5075635;28;20131;-69
2022/04/16 01:08:04;;;;;;;26.00;21.98;;;11.10;99.90;;;11.07;78.61;102965.63;5075887;28;20081;-69
2022/04/16 01:10:35;;;;;;;26.05;21.83;;;10.90;99.90;;;10.90;80.09;102961.63;5057825;28;20036;-69
2022/04/16 01:13:06;;;;;;;23.77;21.20;;;10.70;99.90;;;10.98;79.11;102956.53;5075489;28;20064;-70
2022/04/16 01:15:35;;;;;;;28.65;22.65;;;10.80;99.90;;;10.78;80.59;102961.31;5075448;28;20037;-69
2022/04/16 01:18:05;;;;;;;24.48;21.58;;;10.70;99.90;;;10.84;79.79;102969.38;5075594;28;20049;-69
2022/04/16 01:20:38;;;;;;;28.33;21.80;;;10.70;99.90;;;10.75;80.05;102969.13;5075620;28;20078;-69
2022/04/16 01:23:09;;;;;;;26.60;22.45;;;10.60;99.90;;;10.83;80.42;102959.66;5075308;28;20057;-69
2022/04/16 01:25:37;;;;;;;24.30;21.50;;;10.60;99.90;;;10.68;79.66;102960.13;5075252;28;20508;-69
2022/04/16 01:28:07;;;;;;;26.15;21.17;;;10.50;99.90;;;10.58;79.29;102957.19;5075403;28;20046;-70
2022/04/16 01:30:37;;;;;;;24.83;20.90;;;10.40;99.90;;;10.62;79.06;102952.03;5075102;28;20123;-70
2022/04/16 01:33:06;;;;;;;26.20;22.23;;;10.50;99.90;;;10.61;79.36;102954.59;5075086;28;20043;-69
2022/04/16 01:35:35;;;;;;;27.05;21.67;;;10.40;99.90;;;10.51;78.84;102926.09;5074740;28;20072;-69
2022/04/16 01:38:08;;;;;;;25.92;21.67;;;10.50;99.90;;;10.72;79.65;102939.94;5074965;28;20077;-69
2022/04/16 01:40:38;;;;;;;27.85;22.40;;;10.50;99.90;;;10.75;79.15;102956.81;5074913;28;20110;-69
2022/04/16 01:43:07;;;;;;;26.80;22.58;;;10.60;99.90;;;10.73;79.19;102955.88;5075525;28;20133;-69
2022/04/16 01:45:35;;;;;;;27.42;22.80;;;10.50;99.90;;;10.85;78.84;102952.66;5075060;28;20067;-69
2022/04/16 01:48:04;;;;;;;26.20;23.10;;;10.60;99.90;;;10.81;79.54;102956.09;5074766;28;20051;-69
2022/04/16 01:50:33;;;;;;;28.75;21.83;;;10.60;99.90;;;10.99;79.81;102959.25;5074604;28;20529;-69
2022/04/16 01:53:01;;;;;;;25.85;22.30;;;10.70;99.90;;;10.83;79.30;102954.38;5074895;28;20072;-70
2022/04/16 01:55:31;;;;;;;25.95;22.83;;;10.70;99.90;;;10.83;79.12;102949.06;5056885;28;20103;-69
2022/04/16 01:57:59;;;;;;;25.30;22.20;;;10.60;99.90;;;10.82;78.97;102952.56;5074877;28;20045;-69
2022/04/16 02:00:28;;;;;;;25.40;21.67;;;10.60;99.90;;;10.87;79.03;102949.22;5074512;28;20397;-69
2022/04/16 02:02:57;;;;;;;26.67;21.75;;;10.60;99.90;;;11.05;78.29;102956.78;5074778;28;20079;-69
2022/04/16 02:05:25;;;;;;;24.10;21.08;;;10.80;99.90;;;10.83;78.72;102952.63;5056760;28;20078;-69
2022/04/16 02:07:54;;;;;;;28.10;21.73;;;10.70;99.90;;;10.84;79.07;102961.44;5074678;28;20072;-69
2022/04/16 02:10:22;;;;;;;27.23;22.52;;;10.60;99.90;;;10.58;79.61;102962.47;5074548;28;20395;-69
2022/04/16 02:12:52;;;;;;;29.08;23.42;;;10.50;99.90;;;10.66;79.77;102950.34;5074157;28;20040;-69
2022/04/16 02:15:21;;;;;;;26.80;21.83;;;10.50;99.90;;;10.84;79.35;102961.44;5074229;28;20042;-69
2022/04/16 02:17:49;;;;;;;25.83;22.10;;;10.60;99.90;;;10.68;79.34;102962.75;5073197;28;20043;-69
2022/04/16 02:20:17;;;;;;;26.25;21.98;;;10.60;99.90;;;10.65;79.07;102959.13;5074619;28;20075;-69
2022/04/16 02:22:48;;;;;;;27.95;23.10;;;10.60;99.90;;;10.46;80.28;102972.69;5074638;28;20059;-69
2022/04/16 02:25:18;;;;;;;28.13;22.88;;;10.40;99.90;;;10.50;80.59;102956.03;5074089;28;20036;-69
2022/04/16 02:27:46;;;;;;;25.60;22.80;;;10.40;99.90;;;10.61;80.24;102973.13;5074280;28;20102;-69
2022/04/16 02:30:18;;;;;;;29.00;23.80;;;10.40;99.90;;;10.74;79.83;102981.47;5055987;28;20075;-69
2022/04/16 02:32:52;;;;;;;28.50;23.00;;;10.50;99.90;;;10.27;79.93;102928.94;5056527;28;20056;-69
2022/04/16 02:35:22;;;;;;;27.48;23.27;;;10.40;99.90;;;10.51;80.13;102976.38;5073776;28;20036;-69
2022/04/16 02:37:51;;;;;;;30.20;22.95;;;10.40;99.90;;;10.68;80.10;102986.59;5056253;28;20437;-69
2022/04/16 02:40:19;;;;;;;28.08;23.08;;;10.40;99.90;;;10.57;80.02;102989.75;5073602;28;20048;-69
2022/04/16 02:42:48;;;;;;;28.35;22.88;;;10.40;99.90;;;10.72;79.59;103001.69;5073931;28;20102;-69
2022/04/16 02:48:04;;;;;;;26.30;21.77;;;10.30;99.90;;;10.73;79.44;102984.06;5072998;28;20058;-69
2022/04/16 02:50:33;;;;;;;24.30;21.63;;;10.50;99.90;;;10.75;78.84;103004.47;5073833;28;20036;-69
2022/04/16 02:53:02;;;;;;;25.50;22.80;;;10.60;99.90;;;10.78;78.70;103003.66;5055876;28;20049;-69
2022/04/16 02:55:31;;;;;;;27.00;21.98;;;10.60;99.90;;;10.31;79.51;103014.56;5073678;28;20040;-69
2022/04/16 02:58:00;;;;;;;25.42;22.08;;;10.30;99.90;;;10.48;79.49;103006.28;5073677;28;20048;-69
2022/04/16 03:00:29;;;;;;;28.38;21.27;;;10.30;99.90;;;10.40;79.69;102998.94;5073609;28;20114;-69
2022/04/16 03:02:58;;;;;;;26.48;21.58;;;10.30;99.90;;;10.24;79.90;103007.28;5073914;28;20053;-69
2022/04/16 03:05:26;;;;;;;25.13;20.85;;;10.20;99.90;;;10.45;80.14;103013.25;5073568;28;20441;-69
2022/04/16 03:07:55;;;;;;;25.27;21.67;;;10.20;99.90;;;10.42;80.19;103002.53;5073904;28;20454;-69
2022/04/16 03:10:23;;;;;;;26.55;22.30;;;10.20;99.90;;;10.48;79.53;103003.63;5073235;28;20040;-69
2022/04/16 03:12:53;;;;;;;25.95;21.35;;;10.30;99.90;;;10.39;79.44;102997.19;5073184;28;20498;-69
2022/04/16 03:18:12;;;;;;;28.67;22.98;;;10.30;99.90;;;9.92;79.73;102887.25;5073227;28;20041;-69
2022/04/16 03:20:42;;;;;;;24.77;22.08;;;10.30;99.90;;;10.64;79.34;103012.94;5073510;28;20444;-69
2022/04/16 03:23:11;;;;;;;27.20;23.20;;;10.40;99.90;;;10.50;79.32;102996.66;5073312;28;20074;-69
2022/04/16 03:25:41;;;;;;;28.25;22.98;;;10.40;99.90;;;10.70;78.91;103005.19;5073417;28;20054;-69
2022/04/16 03:28:10;;;;;;;26.52;22.45;;;10.50;99.90;;;10.90;78.07;103009.28;5073088;28;20044;-69
2022/04/16 03:30:39;;;;;;;25.48;21.73;;;10.70;99.90;;;11.05;77.51;103007.09;5055035;28;20045;-69
2022/04/16 03:33:08;;;;;;;25.73;21.40;;;10.80;99.90;;;11.14;77.25;103004.69;5073049;28;20053;-69
2022/04/16 03:35:38;;;;;;;24.55;21.38;;;10.90;99.90;;;10.48;76.58;102918.97;5073304;28;20094;-69
2022/04/16 03:38:07;;;;;;;26.42;22.25;;;10.90;99.90;;;11.13;76.59;102996.69;5073529;28;20040;-69
2022/04/16 03:40:36;;;;;;;23.15;20.60;;;10.90;99.90;;;11.30;75.96;103003.34;5072919;28;20162;-69
2022/04/16 03:43:05;;;;;;;24.23;21.48;;;11.10;99.90;;;11.35;75.56;102999.97;5073243;28;20040;-70
2022/04/16 03:45:35;;;;;;;25.42;21.75;;;11.10;99.90;;;11.42;75.33;103008.97;5073374;28;20162;-69
2022/04/16 03:48:07;;;;;;;28.83;21.48;;;11.20;99.90;;;11.50;74.74;103012.69;5072945;28;20552;-69
2022/04/16 03:50:38;;;;;;;27.77;20.95;;;11.30;99.90;;;11.60;74.44;103010.34;5073159;28;20464;-70
2022/04/16 03:53:06;;;;;;;;;;;11.40;99.90;;;11.62;74.02;103013.94;5073318;28;20440;-69
2022/04/16 04:01:08;;;;;;;26.88;20.83;;;11.40;99.90;;;11.43;74.27;103022.25;5076888;28;20451;-70
2022/04/16 04:03:37;;;;;;;25.58;21.90;;;11.30;99.90;;;11.37;74.81;103029.13;5076819;28;20040;-70
2022/04/16 04:06:07;;;;;;;24.33;21.73;;;11.20;99.90;;;11.35;74.63;103034.41;5076943;28;20102;-70
2022/04/16 04:08:36;;;;;;;26.65;23.40;;;11.10;99.90;;;11.44;74.33;103031.13;5076978;28;20052;-70
2022/04/16 04:11:05;;;;;;;26.52;22.35;;;11.20;99.90;;;11.55;74.15;103025.25;5076632;28;20112;-71
2022/04/16 04:13:33;;;;;;;26.40;22.00;;;11.30;99.90;;;11.59;73.93;103027.09;5076545;28;20136;-70
2022/04/16 04:16:02;;;;;;;24.70;21.13;;;11.40;99.90;;;10.93;73.73;102892.88;5076367;28;20051;-70
2022/04/16 04:18:31;;;;;;;28.88;21.70;;;11.40;99.90;;;11.64;73.36;103029.88;5076676;28;20047;-70
2022/04/16 04:20:59;;;;;;;25.67;21.40;;;11.40;99.90;;;11.71;73.54;103032.75;5076574;28;20053;-70
2022/04/16 04:23:29;;;;;;;25.27;22.08;;;11.50;99.90;;;11.81;73.48;103036.53;5077053;28;20049;-72
2022/04/16 04:25:58;;;;;;;26.38;22.27;;;11.50;99.90;;;11.87;73.21;103033.13;5059094;28;20055;-70
2022/04/16 04:28:26;;;;;;;27.77;23.27;;;11.60;99.90;;;11.86;73.11;103036.66;5076375;28;20075;-70
2022/04/16 04:30:55;;;;;;;26.63;22.58;;;11.60;99.90;;;11.84;73.02;103044.59;5058559;28;20076;-70
2022/04/16 04:33:24;;;;;;;29.08;23.00;;;11.60;99.90;;;11.89;72.93;103049.97;5076239;28;20429;-70
2022/04/16 04:35:52;;;;;;;28.33;22.17;;;11.60;99.90;;;11.88;72.71;103049.09;5058324;28;20136;-70
2022/04/16 04:38:20;;;;;;;27.63;22.70;;;11.60;99.90;;;11.89;72.51;103057.94;5076285;28;20101;-69
2022/04/16 04:40:50;;;;;;;25.70;22.88;;;11.70;99.90;;;11.89;72.43;103053.53;5076195;28;20098;-70
2022/04/16 04:43:18;;;;;;;26.73;23.17;;;11.70;99.90;;;11.84;72.22;103051.63;5076328;28;20040;-70
2022/04/16 04:45:48;;;;;;;26.88;22.70;;;11.70;99.90;;;11.87;71.98;103054.34;5075946;28;20098;-70
2022/04/16 04:48:17;;;;;;;28.40;23.83;;;11.60;99.90;;;11.86;72.30;103056.13;5076214;28;20044;-70
2022/04/16 04:50:45;;;;;;;27.50;23.33;;;11.60;99.90;;;11.72;72.24;103053.13;5075869;28;20041;-70
2022/04/16 04:53:14;;;;;;;29.48;24.13;;;11.60;99.90;;;11.60;72.31;103050.09;5075857;28;20045;-70
2022/04/16 04:55:42;;;;;;;28.13;24.13;;;11.50;99.90;;;11.67;72.56;103062.69;5075981;28;20041;-70
2022/04/16 04:58:12;;;;;;;30.27;24.92;;;11.50;99.90;;;11.64;72.62;103048.44;5075671;28;20432;-70
2022/04/16 05:00:40;;;;;;;27.43;23.40;;;11.50;99.90;;;11.58;72.76;103051.81;5075736;28;20182;-70
2022/04/16 05:03:09;;;;;;;25.50;22.77;;;11.40;99.90;;;11.48;73.12;103060.38;5075619;28;20036;-70
2022/04/16 05:05:37;;;;;;;30.98;23.90;;;11.30;99.90;;;11.57;73.29;103055.34;5075884;28;20041;-70
2022/04/16 05:08:06;;;;;;;28.48;24.10;;;11.40;99.90;;;11.62;73.44;103053.69;5075430;28;20062;-70
2022/04/16 05:10:34;;;;;;;29.73;23.98;;;11.40;99.90;;;11.55;73.22;103041.16;5074804;28;20036;-70
2022/04/16 05:13:02;;;;;;;29.95;23.85;;;11.50;99.90;;;11.55;73.11;103050.84;5075464;28;20055;-70
2022/04/16 05:15:32;;;;;;;29.33;24.55;;;11.50;99.90;;;11.67;73.19;103069.78;5075609;28;20443;-70
2022/04/16 05:18:01;;;;;;;27.20;23.17;;;11.50;99.90;;;11.78;73.27;103078.91;5075691;28;20045;-70
2022/04/16 05:20:29;;;;;;;28.58;23.98;;;11.60;99.90;;;11.81;73.12;103073.66;5075522;28;20048;-70
2022/04/16 05:22:58;;;;;;;31.20;24.55;;;11.60;99.90;;;11.92;72.56;103085.47;5057343;28;20355;-70
2022/04/16 05:25:26;;;;;;;28.85;24.02;;;11.70;99.90;;;11.92;72.57;103081.91;5075752;28;20440;-70
2022/04/16 05:27:54;;;;;;;31.05;23.88;;;11.70;99.90;;;12.04;72.38;103092.84;5057417;28;20517;-70
2022/04/16 05:30:29;;;;;;;30.02;24.30;;;11.80;99.90;;;12.09;72.27;103100.03;5075402;28;20097;-70
2022/04/16 05:33:05;;;;;;;29.20;24.40;;;11.90;99.90;;;12.21;71.99;103095.03;5074972;28;20548;-70
2022/04/16 05:35:34;;;;;;;32.05;25.02;;;12.00;99.90;;;12.30;71.59;103099.66;5074960;28;20033;-70
2022/04/16 05:38:02;;;;;;;31.40;24.00;;;12.10;99.90;;;12.35;71.20;103095.38;5073660;28;20127;-70
2022/04/16 05:40:31;;;;;;;28.08;24.10;;;12.10;99.90;;;12.36;71.17;103091.84;5074986;28;20053;-70
2022/04/16 05:42:59;;;;;;;29.48;23.83;;;12.20;99.90;;;12.36;70.96;103091.84;5074883;28;20136;-70
2022/04/16 05:45:27;;;;;;;27.95;24.95;;;12.20;99.90;;;12.55;71.25;103100.28;5075013;28;20110;-70
2022/04/16 05:47:56;;;;;;;30.40;23.73;;;12.30;99.90;;;12.63;70.30;103096.06;5057066;28;20040;-70
2022/04/16 05:50:26;;;;;;;30.58;24.00;;;12.50;99.90;;;12.25;70.02;102998.69;5074965;28;20075;-70
2022/04/16 05:52:54;;;;;;;30.13;25.47;;;12.60;99.90;;;13.00;69.42;103097.75;5074937;28;20071;-70
2022/04/16 05:55:23;;;;;;;32.55;24.83;;;12.80;99.90;;;13.06;68.61;103091.72;5074495;28;20040;-70
2022/04/16 05:57:51;;;;;;;31.02;24.20;;;12.90;99.90;;;13.23;68.55;103101.81;5074544;28;20494;-70
2022/04/16 06:00:19;;;;;;;28.38;24.27;;;13.00;99.90;;;13.17;68.20;103101.69;5056826;28;20126;-71
2022/04/16 06:02:48;;;;;;;29.15;24.40;;;13.00;99.90;;;13.38;67.78;103111.84;5074400;28;20040;-71
2022/04/16 06:05:16;;;;;;;29.73;24.95;;;13.10;99.90;;;13.60;67.28;103108.78;5056682;28;20458;-70
2022/04/16 06:07:46;;;;;;;27.90;23.85;;;13.30;99.90;;;13.66;66.75;103111.56;5056758;28;20056;-70
2022/04/16 06:10:14;;;;;;;31.90;24.90;;;13.40;99.90;;;13.37;66.80;103111.00;5074388;28;20052;-70
2022/04/16 06:12:43;;;;;;;31.58;24.33;;;13.40;99.90;;;13.43;67.13;103115.53;5074250;28;20072;-71
2022/04/16 06:15:11;;;;;;;29.40;24.75;;;13.30;99.90;;;12.63;68.33;103116.41;5074363;28;20072;-70
2022/04/16 06:17:39;;;;;;;32.55;25.80;;;12.90;99.90;;;12.77;69.60;103122.94;5074433;28;20501;-70
2022/04/16 06:20:09;;;;;;;30.88;25.33;;;12.60;99.90;;;12.25;70.66;103122.56;5056526;28;20122;-70
2022/04/16 06:22:38;;;;;;;32.10;25.92;;;12.20;99.90;;;12.19;71.34;103115.34;5073410;28;20041;-70
2022/04/16 06:25:09;;;;;;;31.85;25.20;;;12.10;99.90;;;12.14;72.69;103121.34;5073699;28;20509;-70
2022/04/16 06:27:39;;;;;;;32.00;26.50;;;12.00;99.90;;;11.72;74.33;103134.41;5073955;28;20044;-70
2022/04/16 06:30:10;;;;;;;38.50;27.77;;;11.60;99.90;;;11.85;74.20;103132.97;5073887;28;20494;-70
2022/04/16 06:32:39;;;;;;;35.53;28.90;;;11.60;99.90;;;11.59;74.99;103124.28;5055954;28;20052;-70
2022/04/16 06:35:10;;;;;;;33.72;27.27;;;11.50;99.90;;;12.03;74.66;103112.25;5073979;28;20102;-70
2022/04/16 06:37:41;;;;;;;32.65;26.08;;;11.80;99.90;;;12.41;73.18;103136.22;5073642;28;20109;-71
2022/04/16 06:40:12;;;;;;;35.22;26.77;;;12.10;99.90;;;12.48;72.86;103145.25;5073353;28;20055;-70
2022/04/16 06:42:41;;;;;;;40.13;27.92;;;12.30;99.90;;;12.83;72.75;103136.34;5073324;28;20481;-70
2022/04/16 06:45:12;;;;;;;36.35;26.08;;;12.50;99.90;;;12.42;71.23;103143.34;5073664;28;20094;-70
2022/04/16 06:47:41;;;;;;;32.78;26.75;;;12.60;99.90;;;12.88;72.24;103155.94;5073641;28;20052;-70
2022/04/16 06:50:11;;;;;;;32.47;26.08;;;12.60;99.90;;;12.46;73.09;103147.88;5055855;28;20056;-70
2022/04/16 06:52:46;;;;;;;35.15;27.73;;;12.40;99.90;;;12.48;72.42;103127.56;5055884;28;20048;-70
2022/04/16 06:55:16;;;;;;;32.63;26.73;;;12.40;99.90;;;12.19;74.18;103143.63;5073474;28;20485;-70
2022/04/16 06:57:44;;;;;;;34.40;28.47;;;12.10;99.90;;;12.78;73.37;103153.91;5073662;28;20144;-70
2022/04/16 07:00:14;;;;;;;35.28;26.85;;;12.40;99.90;;;13.10;72.45;103150.28;5055754;28;20052;-70
2022/04/16 07:02:42;;;;;;;32.97;26.58;;;12.80;99.90;;;13.28;71.56;103150.66;5073362;28;20106;-70
2022/04/16 07:05:11;;;;;;;31.67;27.15;;;13.00;99.90;;;13.42;70.91;103129.66;5073428;28;20052;-71
2022/04/16 07:07:40;;;;;;;32.72;27.58;;;13.30;99.90;;;13.56;70.81;103160.09;5073287;28;20036;-71
2022/04/16 07:10:11;;;;;;;34.75;26.98;;;13.40;99.90;;;13.52;70.38;103156.50;5073519;28;20367;-70
2022/04/16 07:12:41;;;;;;;37.88;28.75;;;13.40;99.90;;;13.00;71.74;103147.34;5073620;28;20044;-70
2022/04/16 07:15:10;;;;;;;43.78;30.48;;;13.10;99.90;;;12.99;72.56;103167.69;5073270;28;20049;-70
2022/04/16 07:17:39;;;;;;;37.13;30.02;;;12.90;99.90;;;12.27;74.27;103152.69;5073019;28;20088;-70
2022/04/16 07:20:09;;;;;;;35.42;29.42;;;12.40;99.90;;;12.47;74.70;103162.00;5073061;28;20040;-70
2022/04/16 07:22:38;;;;;;;37.00;29.13;;;12.30;99.90;;;12.20;77.42;103140.09;5073269;28;20090;-70
2022/04/16 07:25:07;;;;;;;41.67;31.58;;;12.00;99.90;;;11.84;78.75;103155.97;5072710;28;20067;-70
2022/04/16 07:27:36;;;;;;;38.13;29.90;;;11.70;99.90;;;12.36;77.38;103148.50;5072902;28;20486;-70
2022/04/16 07:30:07;;;;;;;40.10;31.50;;;12.00;99.90;;;12.29;78.12;103149.19;5055344;28;20101;-70
2022/04/16 07:32:35;;;;;;;40.95;31.75;;;12.10;99.90;;;11.91;78.65;103149.03;5073141;28;20375;-70
2022/04/16 07:35:04;;;;;;;42.92;31.73;;;11.80;99.90;;;12.51;77.93;103156.81;5073175;28;20040;-70
2022/04/16 07:37:33;;;;;;;42.58;32.30;;;12.10;99.90;;;12.66;77.88;103148.31;5072711;28;20068;-70
2022/04/16 07:40:01;;;;;;;38.85;30.83;;;12.30;99.90;;;12.23;76.58;103161.41;5072624;28;20075;-69
2022/04/16 07:42:31;;;;;;;41.42;31.88;;;12.20;99.90;;;12.06;79.04;103146.81;5072729;28;20045;-70
2022/04/16 07:45:00;;;;;;;35.30;29.83;;;12.00;99.90;;;12.28;79.40;103155.38;5073110;28;20453;-70
2022/04/16 07:47:29;;;;;;;37.70;31.38;;;12.10;99.90;;;12.43;80.09;103149.53;5072618;28;20131;-70
2022/04/16 07:49:58;;;;;;;38.40;30.63;;;12.10;99.90;;;12.51;77.22;103130.28;5072538;28;20047;-71
2022/04/16 07:52:28;;;;;;;40.25;30.90;;;12.50;99.90;;;12.96;76.35;103149.03;5072476;28;20049;-70
2022/04/16 07:54:56;;;;;;;40.80;31.15;;;12.70;99.90;;;11.81;78.75;103142.59;5072896;28;20045;-70
2022/04/16 07:57:25;;;;;;;39.90;30.88;;;11.90;99.90;;;11.79;80.65;103162.88;5072835;28;20037;-70
2022/04/16 07:59:54;;;;;;;42.53;31.30;;;11.70;99.90;;;11.51;81.62;103113.50;5073265;28;20520;-70
2022/04/16 08:02:22;;;;;;;40.78;32.15;;;11.50;99.90;;;12.37;80.01;103152.03;5073192;28;20094;-71
2022/04/16 08:04:52;;;;;;;42.65;33.08;;;12.10;99.90;;;12.43;80.38;103144.22;5072978;28;20045;-72
2022/04/16 08:07:20;;;;;;;41.45;31.88;;;12.20;99.90;;;12.07;80.73;103100.84;5072885;28;20040;-71
2022/04/16 08:09:48;;;;;;;42.38;32.70;;;12.30;99.90;;;12.12;80.71;103147.84;5073363;28;20048;-71
2022/04/16 08:12:17;;;;;;;40.83;30.60;;;12.00;99.90;;;12.13;80.81;103154.97;5072640;28;20049;-70
2022/04/16 08:14:45;;;;;;;42.55;32.00;;;11.90;99.90;;;12.38;80.48;103141.47;5072552;28;20068;-70
2022/04/16 08:17:14;;;;;;;41.78;32.17;;;12.10;99.90;;;12.37;79.63;103144.06;5072596;28;20556;-70
2022/04/16 08:19:42;;;;;;;44.65;31.10;;;12.20;99.90;;;11.75;80.47;103161.00;5072507;28;20049;-71
2022/04/16 08:22:17;;;;;;;40.38;30.92;;;11.70;99.90;;;11.77;81.44;103154.88;5072442;28;20455;-70
2022/04/16 08:24:55;;;;;;;40.10;30.70;;;11.60;99.90;;;12.33;81.53;103142.22;5072421;28;20049;-70
2022/04/16 08:27:23;;;;;;;42.95;31.42;;;12.00;99.90;;;12.16;79.37;103159.44;5072463;28;20055;-70
2022/04/16 08:29:51;;;;;;;41.22;31.10;;;12.10;99.90;;;12.42;80.68;103161.00;5072400;28;20041;-70
2022/04/16 08:32:20;;;;;;;42.75;32.65;;;12.10;99.90;;;12.33;80.98;103163.44;5072701;28;20068;-70
2022/04/16 08:34:50;;;;;;;;;;;12.20;99.90;;;12.61;81.10;103156.19;5072874;28;20394;-70
2022/04/16 08:37:20;;;;;;;42.55;30.48;;;12.30;99.90;;;12.86;79.66;103168.28;5072555;28;19970;-70
2022/04/16 08:39:49;;;;;;;40.70;30.83;;;12.60;99.90;;;13.13;78.70;103155.66;5072372;28;20048;-70
2022/04/16 08:42:17;;;;;;;38.40;31.20;;;12.80;99.90;;;13.50;78.65;103170.63;5072708;28;20136;-70
2022/04/16 08:44:46;;;;;;;40.75;30.38;;;13.20;99.90;;;13.15;78.45;103169.88;5072778;28;20457;-70
2022/04/16 08:47:15;;;;;;;38.47;28.60;;;13.00;99.90;;;12.55;77.99;103179.03;5076069;28;20405;-70
2022/04/16 08:49:45;;;;;;;39.22;30.02;;;12.60;99.90;;;12.57;79.25;103170.25;5075845;28;20123;-70
2022/04/16 08:52:13;;;;;;;39.35;29.60;;;12.40;99.90;;;12.53;80.22;103170.13;5076168;28;20075;-70
2022/04/16 08:54:43;;;;;;;39.88;29.30;;;12.30;99.90;;;12.54;80.92;103185.22;5076121;28;20067;-69
2022/04/16 08:57:11;;;;;;;40.22;29.02;;;12.30;99.90;;;12.94;79.45;103145.44;5076122;28;20461;-70
2022/04/16 08:59:39;;;;;;;38.50;28.55;;;12.60;99.90;;;13.19;77.31;103168.16;5075924;28;20037;-70
2022/04/16 09:02:09;;;;;;;37.47;27.70;;;13.00;99.90;;;12.54;77.55;103143.59;5075820;28;20051;-70
2022/04/16 09:04:38;;;;;;;38.55;29.27;;;12.60;99.90;;;12.67;78.53;103152.78;5076023;28;20079;-70
2022/04/16 09:07:06;;;;;;;34.92;24.65;;;12.60;99.90;;;12.56;77.02;103180.84;5075737;28;20041;-70
2022/04/16 09:09:35;;;;;;;39.13;28.60;;;12.40;99.90;;;12.31;78.35;103166.03;5075473;28;20128;-70
2022/04/16 09:12:15;;;;;;;36.05;26.92;;;12.20;99.90;;;12.52;76.92;103075.44;5075202;28;20036;-70
2022/04/16 09:14:45;;;;;;;37.92;28.08;;;12.70;99.90;;;13.08;77.85;103159.06;5075967;28;20045;-70
2022/04/16 09:17:17;;;;;;;34.15;27.05;;;12.80;99.90;;;12.89;76.87;103160.38;5074252;28;20040;-70
2022/04/16 09:19:54;;;;;;;35.83;28.20;;;12.90;99.90;;;13.08;77.79;103148.44;5075314;28;20059;-70
2022/04/16 09:22:34;;;;;;;37.40;29.45;;;13.00;99.90;;;13.53;76.99;103165.34;5075570;28;20090;-70
2022/04/16 09:25:04;;;;;;;35.85;27.45;;;13.20;99.90;;;13.36;78.12;103153.47;5075020;28;20490;-70
2022/04/16 09:27:42;;;;;;;34.88;26.33;;;13.20;99.90;;;13.00;76.36;103171.25;5075130;28;20045;-70
2022/04/16 09:30:11;;;;;;;36.95;28.33;;;12.90;99.90;;;12.99;77.32;103167.69;5075041;28;20429;-70
2022/04/16 09:32:44;;;;;;;36.20;28.80;;;12.80;99.90;;;13.05;78.15;103162.56;5074977;28;20041;-70
2022/04/16 09:35:37;;;;;;;33.90;26.00;;;12.80;99.90;;;13.50;75.98;103149.34;5075064;28;20486;-70
2022/04/16 09:38:12;;;;;;;32.78;25.33;;;13.20;99.90;;;13.65;74.60;103154.03;5058130;28;20056;-70
2022/04/16 09:40:42;;;;;;;29.40;22.48;;;13.40;99.90;;;13.58;72.16;103142.41;5074962;28;20045;-71
2022/04/16 09:43:12;;;;;;;31.45;25.23;;;13.40;99.90;;;13.81;74.85;103161.47;5057216;28;20048;-71
2022/04/16 09:45:42;;;;;;;26.83;21.02;;;13.50;99.90;;;13.71;71.08;103176.34;5075068;28;20421;-71
2022/04/16 09:48:13;;;;;;;;;;;13.50;99.90;;;13.75;72.35;103156.03;5075809;28;20055;-70
2022/04/16 09:50:43;;;;;;;24.93;20.30;;;13.50;99.90;;;13.54;71.02;103157.41;5074784;28;19934;-71
2022/04/16 09:53:13;;;;;;;26.35;20.95;;;13.40;99.90;;;13.66;70.05;103158.53;5074529;28;20446;-70
2022/04/16 09:55:42;;;;;;;28.63;21.63;;;13.40;99.90;;;13.79;72.64;103157.88;5056559;28;20406;-71
2022/04/16 09:58:13;;;;;;;25.63;20.65;;;13.50;99.90;;;13.67;72.69;103142.59;5074243;28;20045;-70
2022/04/16 10:00:42;;;;;;;26.30;21.52;;;13.50;99.90;;;14.02;71.47;103156.53;5074239;28;20512;-70
2022/04/16 10:03:32;;;;;;;31.80;23.70;;;13.70;99.90;;;14.40;71.86;103169.69;5074534;28;20048;-71
2022/04/16 10:06:02;;;;;;;26.38;22.05;;;14.10;99.90;;;14.75;69.92;103158.72;5074869;28;20044;-70
2022/04/16 10:08:34;;;;;;;24.67;20.80;;;14.40;99.90;;;14.57;68.68;103169.97;5074269;28;20040;-70
2022/04/16 10:11:04;;;;;;;25.73;20.23;;;14.40;99.90;;;14.44;69.41;103126.25;5074581;28;20052;-70
2022/04/16 10:13:44;;;;;;;22.45;19.77;;;14.30;99.90;;;14.36;67.67;103159.84;5056632;28;20049;-70
2022/04/16 10:16:20;;;;;;;25.30;19.58;;;14.20;99.90;;;14.33;68.62;103156.25;5074237;28;20110;-70
2022/04/16 10:18:49;;;;;;;24.83;20.65;;;14.10;99.90;;;14.52;67.92;103158.34;5074012;28;20033;-70
2022/04/16 10:21:18;;;;;;;26.42;21.05;;;14.20;99.90;;;14.75;68.62;103156.94;5056358;28;20063;-70
2022/04/16 10:23:47;;;;;;;22.98;19.55;;;14.50;99.90;;;14.49;67.32;103150.31;5073375;28;20051;-70